createdAt,value
2018-07-13T00:00:50.441Z,95767.2
2018-07-13T00:01:52.894Z,95768.8
2018-07-13T00:02:55.353Z,95767.9
2018-07-13T00:03:57.576Z,95769.9
2018-07-13T00:05:00.036Z,95765.2
2018-07-13T00:06:02.497Z,95765.7
2018-07-13T00:07:04.644Z,95765.4
2018-07-13T00:08:06.551Z,95768.8
2018-07-13T00:09:08.737Z,95768.8
2018-07-13T00:10:11.186Z,95765.8
2018-07-13T00:11:13.356Z,95766.3
2018-07-13T00:12:15.808Z,95769.1
2018-07-13T00:13:17.418Z,95765.1
2018-07-13T00:14:19.597Z,95763.2
2018-07-13T00:15:22.051Z,95769.5
2018-07-13T00:16:24.511Z,95765.2
2018-07-13T00:17:26.398Z,95764.7
2018-07-13T00:18:28.577Z,95761.8
2018-07-13T00:19:31.031Z,95762.9
2018-07-13T00:20:32.971Z,95762.8
2018-07-13T00:21:35.150Z,95762.5
2018-07-13T00:22:37.604Z,95763.6
2018-07-13T00:23:39.788Z,95764
2018-07-13T00:24:42.227Z,95765.8
2018-07-13T00:25:44.397Z,95762
2018-07-13T00:26:46.315Z,95760.3
2018-07-13T00:27:48.756Z,95764.8
2018-07-13T00:28:50.938Z,95761.8
2018-07-13T00:29:53.123Z,95758.9
2018-07-13T00:30:55.300Z,95763.1
2018-07-13T00:31:57.454Z,95764.3
2018-07-13T00:32:59.912Z,95761.2
2018-07-13T00:34:01.780Z,95761.5
2018-07-13T00:35:04.216Z,95764.1
2018-07-13T00:36:06.387Z,95764.8
2018-07-13T00:37:08.834Z,95765.9
2018-07-13T00:38:11.274Z,95764.8
2018-07-13T00:39:13.448Z,95763.6
2018-07-13T00:40:15.896Z,95766.3
2018-07-13T00:41:17.791Z,95767.9
2018-07-13T00:42:20.268Z,95765.2
2018-07-13T00:43:22.494Z,95765.5
2018-07-13T00:44:24.927Z,95769.1
2018-07-13T00:45:27.101Z,95771.2
2018-07-13T00:46:29.568Z,95770.7
2018-07-13T00:47:31.735Z,95771.5
2018-07-13T00:48:34.266Z,95771.8
2018-07-13T00:49:36.718Z,95768.1
2018-07-13T00:50:39.157Z,95767.9
2018-07-13T00:51:41.601Z,95770.9
2018-07-13T00:52:43.770Z,95771.2
2018-07-13T00:53:45.936Z,95771.8
2018-07-13T00:54:48.136Z,95771.4
2018-07-13T00:55:50.012Z,95772.2
2018-07-13T00:56:52.469Z,95775.2
2018-07-13T00:57:54.951Z,95770
2018-07-13T00:58:57.120Z,95773.3
2018-07-13T00:59:59.573Z,95773.5
2018-07-13T01:01:01.482Z,95769.9
2018-07-13T01:02:03.646Z,95771.6
2018-07-13T01:03:05.837Z,95772.1
2018-07-13T01:04:07.994Z,95774.7
2018-07-13T01:05:10.439Z,95772.5
2018-07-13T01:06:12.631Z,95772.3
2018-07-13T01:07:14.809Z,95769.7
2018-07-13T01:08:16.459Z,95770
2018-07-13T01:09:18.904Z,95771
2018-07-13T01:10:21.363Z,95771.2
2018-07-13T01:11:23.799Z,95777.6
2018-07-13T01:12:25.667Z,95775.6
2018-07-13T01:13:28.119Z,95779.2
2018-07-13T01:14:30.568Z,95775.9
2018-07-13T01:15:33.017Z,95777.7
2018-07-13T01:16:35.187Z,95774.6
2018-07-13T01:17:37.368Z,95775.1
2018-07-13T01:18:39.259Z,95778.1
2018-07-13T01:19:41.702Z,95778.1
2018-07-13T01:20:44.148Z,95776.6
2018-07-13T01:21:46.358Z,95781.5
2018-07-13T01:22:48.810Z,95779
2018-07-13T01:23:51.249Z,95779
2018-07-13T01:24:53.699Z,95782.1
2018-07-13T01:25:55.589Z,95779.6
2018-07-13T01:26:57.467Z,95782
2018-07-13T01:27:59.637Z,95780.5
2018-07-13T01:29:02.089Z,95782
2018-07-13T01:30:04.526Z,95782.6
2018-07-13T01:31:06.703Z,95781.9
2018-07-13T01:32:09.146Z,95779.4
2018-07-13T01:33:11.327Z,95779
2018-07-13T01:34:13.774Z,95774.7
2018-07-13T01:35:16.230Z,95776.9
2018-07-13T01:36:18.400Z,95775
2018-07-13T01:37:20.582Z,95773.9
2018-07-13T01:38:23.024Z,95773.6
2018-07-13T01:39:24.922Z,95774.9
2018-07-13T01:40:27.134Z,95770.3
2018-07-13T01:41:29.285Z,95770
2018-07-13T01:42:31.456Z,95772.6
2018-07-13T01:43:33.896Z,95769.7
2018-07-13T01:44:36.346Z,95771.9
2018-07-13T01:45:38.275Z,95769.9
2018-07-13T01:46:40.457Z,95768.4
2018-07-13T01:47:42.903Z,95767.5
2018-07-13T01:48:45.348Z,95768.1
2018-07-13T01:49:47.813Z,95768.5
2018-07-13T01:50:50.262Z,95771.9
2018-07-13T01:51:52.707Z,95762
2018-07-13T01:52:54.613Z,95763.5
2018-07-13T01:53:56.281Z,95762.8
2018-07-13T01:54:58.447Z,95765.3
2018-07-13T01:56:00.903Z,95762
2018-07-13T01:57:03.349Z,95757.4
2018-07-13T01:58:05.507Z,95764.3
2018-07-13T01:59:07.386Z,95765
2018-07-13T02:00:09.842Z,95760.1
2018-07-13T02:01:12.025Z,95759.1
2018-07-13T02:02:14.464Z,95758.9
2018-07-13T02:03:16.651Z,95761.2
2018-07-13T02:04:18.300Z,95758.9
2018-07-13T02:05:20.493Z,95758
2018-07-13T02:06:22.376Z,95760.2
2018-07-13T02:07:24.862Z,95759.6
2018-07-13T02:08:26.765Z,95758.2
2018-07-13T02:09:28.947Z,95757.5
2018-07-13T02:10:31.126Z,95758.7
2018-07-13T02:11:33.306Z,95755.4
2018-07-13T02:12:35.498Z,95759.2
2018-07-13T02:13:37.944Z,95760.9
2018-07-13T02:14:39.861Z,95756.9
2018-07-13T02:15:42.021Z,95757.6
2018-07-13T02:16:44.187Z,95761.6
2018-07-13T02:17:46.625Z,95754.7
2018-07-13T02:18:49.073Z,95756.4
2018-07-13T02:19:50.701Z,95750.2
2018-07-13T02:20:52.886Z,95754
2018-07-13T02:21:55.347Z,95755.3
2018-07-13T02:22:57.791Z,95755.2
2018-07-13T02:23:59.979Z,95755
2018-07-13T02:25:02.426Z,95757
2018-07-13T02:26:04.595Z,95757.5
2018-07-13T02:27:07.041Z,95763
2018-07-13T02:28:09.485Z,95768.5
2018-07-13T02:29:11.695Z,95767.5
2018-07-13T02:30:13.591Z,95760.4
2018-07-13T02:31:15.466Z,95765.7
2018-07-13T02:32:17.109Z,95765
2018-07-13T02:33:19.285Z,95763.9
2018-07-13T02:34:21.451Z,95769.6
2018-07-13T02:35:23.606Z,95769.8
2018-07-13T02:36:25.785Z,95768.6
2018-07-13T02:37:27.977Z,95768.6
2018-07-13T02:38:30.427Z,95768.9
2018-07-13T02:39:32.877Z,95770.8
2018-07-13T02:40:35.066Z,95769.8
2018-07-13T02:41:36.687Z,95775.9
2018-07-13T02:42:39.131Z,95771.9
2018-07-13T02:43:41.286Z,95778.1
2018-07-13T02:44:43.462Z,95774.5
2018-07-13T02:45:45.895Z,95779
2018-07-13T02:46:48.076Z,95778
2018-07-13T02:47:49.960Z,95776.7
2018-07-13T02:48:52.400Z,95775.2
2018-07-13T02:49:54.588Z,95774.8
2018-07-13T02:50:57.031Z,95779.5
2018-07-13T02:51:59.200Z,95775.7
2018-07-13T02:53:01.378Z,95774.8
2018-07-13T02:54:03.540Z,95771.6
2018-07-13T02:55:05.993Z,95773.7
2018-07-13T02:56:08.177Z,95778.5
2018-07-13T02:57:10.359Z,95772.5
2018-07-13T02:58:12.809Z,95777.9
2018-07-13T02:59:15.259Z,95778.8
2018-07-13T03:00:17.423Z,95782.6
2018-07-13T03:01:19.334Z,95780.3
2018-07-13T03:02:21.232Z,95778.8
2018-07-13T03:03:23.674Z,95782.2
2018-07-13T03:04:25.587Z,95781
2018-07-13T03:05:28.042Z,95781.8
2018-07-13T03:06:30.496Z,95782.9
2018-07-13T03:07:32.945Z,95784.3
2018-07-13T03:08:35.108Z,95784.3
2018-07-13T03:09:37.310Z,95784
2018-07-13T03:10:39.491Z,95786.8
2018-07-13T03:11:41.388Z,95783.9
2018-07-13T03:12:43.839Z,95785.5
2018-07-13T03:13:45.747Z,95787.3
2018-07-13T03:14:47.913Z,95788.8
2018-07-13T03:15:50.365Z,95788.3
2018-07-13T03:16:52.549Z,95789.4
2018-07-13T03:17:54.721Z,95792.2
2018-07-13T03:18:56.942Z,95792.6
2018-07-13T03:19:59.080Z,95786.6
2018-07-13T03:21:01.536Z,95795.3
2018-07-13T03:22:04.144Z,95793.2
2018-07-13T03:23:06.652Z,95792.6
2018-07-13T03:24:08.842Z,95797
2018-07-13T03:25:11.278Z,95794.3
2018-07-13T03:26:13.730Z,95797.5
2018-07-13T03:27:15.904Z,95798.4
2018-07-13T03:28:18.339Z,95794.9
2018-07-13T03:29:20.791Z,95797
2018-07-13T03:30:23.242Z,95799.8
2018-07-13T03:31:25.155Z,95799.9
2018-07-13T03:32:26.808Z,95800.2
2018-07-13T03:33:28.688Z,95804.5
2018-07-13T03:34:30.886Z,95801.7
2018-07-13T03:35:33.407Z,95805.5
2018-07-13T03:36:35.907Z,95807.1
2018-07-13T03:37:38.092Z,95806.5
2018-07-13T03:38:40.546Z,95807.3
2018-07-13T03:39:42.996Z,95809
2018-07-13T03:40:45.436Z,95810.6
2018-07-13T03:41:46.787Z,95806.1
2018-07-13T03:42:49.238Z,95810.8
2018-07-13T03:43:51.498Z,95810.1
2018-07-13T03:44:53.650Z,95812.1
2018-07-13T03:45:56.100Z,95811.3
2018-07-13T03:46:58.287Z,95809.1
2018-07-13T03:48:00.732Z,95812.2
2018-07-13T03:49:02.609Z,95812.6
2018-07-13T03:50:04.247Z,95809.3
2018-07-13T03:51:06.154Z,95813.5
2018-07-13T03:52:08.648Z,95813.3
2018-07-13T03:53:10.562Z,95812.5
2018-07-13T03:54:12.664Z,95817.1
2018-07-13T03:55:14.882Z,95815.6
2018-07-13T03:56:16.793Z,95815.3
2018-07-13T03:57:19.249Z,95823
2018-07-13T03:58:21.706Z,95823.8
2018-07-13T03:59:23.877Z,95828.8
2018-07-13T04:00:26.400Z,95828.9
2018-07-13T04:01:29.006Z,95827.7
2018-07-13T04:02:30.911Z,95826.4
2018-07-13T04:03:33.367Z,95830.3
2018-07-13T04:04:35.552Z,95828.3
2018-07-13T04:05:37.728Z,95827.1
2018-07-13T04:06:40.172Z,95828.5
2018-07-13T04:07:42.336Z,95828.1
2018-07-13T04:08:44.811Z,95828.3
2018-07-13T04:09:46.704Z,95826.8
2018-07-13T04:10:49.172Z,95826.7
2018-07-13T04:11:51.336Z,95829.3
2018-07-13T04:12:53.523Z,95833.1
2018-07-13T04:13:55.971Z,95837.5
2018-07-13T04:14:58.413Z,95834.6
2018-07-13T04:16:00.035Z,95835.3
2018-07-13T04:17:02.217Z,95841.6
2018-07-13T04:18:04.380Z,95841.8
2018-07-13T04:19:06.846Z,95842.8
2018-07-13T04:20:09.028Z,95843.1
2018-07-13T04:21:11.492Z,95839.3
2018-07-13T04:22:13.372Z,95845.8
2018-07-13T04:23:15.825Z,95843
2018-07-13T04:24:18.270Z,95843.7
2018-07-13T04:25:20.722Z,95838.6
2018-07-13T04:26:22.910Z,95840.4
2018-07-13T04:27:25.057Z,95839.8
2018-07-13T04:28:27.249Z,95838.9
2018-07-13T04:29:29.688Z,95844.8
2018-07-13T04:30:31.862Z,95842
2018-07-13T04:31:34.058Z,95848.8
2018-07-13T04:32:36.498Z,95848.1
2018-07-13T04:33:38.953Z,95849.1
2018-07-13T04:34:41.410Z,95848.6
2018-07-13T04:35:43.301Z,95847
2018-07-13T04:36:45.489Z,95843.5
2018-07-13T04:37:47.928Z,95838.6
2018-07-13T04:38:49.804Z,95844.4
2018-07-13T04:39:52.266Z,95838
2018-07-13T04:40:54.466Z,95840.1
2018-07-13T04:41:56.953Z,95837.4
2018-07-13T04:42:59.147Z,95843.5
2018-07-13T04:44:00.778Z,95844.9
2018-07-13T04:45:03.231Z,95847.3
2018-07-13T04:46:05.690Z,95846.5
2018-07-13T04:47:07.877Z,95851.2
2018-07-13T04:48:10.329Z,95852.1
2018-07-13T04:49:12.772Z,95845.9
2018-07-13T04:50:14.910Z,95849.6
2018-07-13T04:51:17.066Z,95843.3
2018-07-13T04:52:19.267Z,95842.6
2018-07-13T04:53:21.441Z,95838.2
2018-07-13T04:54:23.616Z,95841.9
2018-07-13T04:55:26.079Z,95837.4
2018-07-13T04:56:28.512Z,95842.9
2018-07-13T04:57:30.434Z,95839.6
2018-07-13T04:58:32.323Z,95838.1
2018-07-13T04:59:34.197Z,95840.6
2018-07-13T05:00:36.425Z,95841
2018-07-13T05:01:38.298Z,95840
2018-07-13T05:02:40.472Z,95833.2
2018-07-13T05:03:42.918Z,95835
2018-07-13T05:04:45.101Z,95835.5
2018-07-13T05:05:47.341Z,95833.9
2018-07-13T05:06:49.675Z,95838
2018-07-13T05:07:51.868Z,95834.5
2018-07-13T05:08:54.030Z,95835.3
2018-07-13T05:09:56.227Z,95837
2018-07-13T05:10:58.453Z,95836.4
2018-07-13T05:12:00.082Z,95830.6
2018-07-13T05:13:02.245Z,95839.1
2018-07-13T05:14:04.131Z,95832.3
2018-07-13T05:15:06.292Z,95837.7
2018-07-13T05:16:08.508Z,95836.7
2018-07-13T05:17:10.975Z,95830.6
2018-07-13T05:18:13.145Z,95830.3
2018-07-13T05:19:15.326Z,95835.2
2018-07-13T05:20:17.502Z,95833.1
2018-07-13T05:21:19.848Z,95837
2018-07-13T05:22:22.268Z,95839.5
2018-07-13T05:23:24.437Z,95834.2
2018-07-13T05:24:26.605Z,95839.5
2018-07-13T05:25:29.117Z,95838
2018-07-13T05:26:31.650Z,95839
2018-07-13T05:27:33.879Z,95839.7
2018-07-13T05:28:36.451Z,95837.7
2018-07-13T05:29:38.635Z,95842
2018-07-13T05:30:40.925Z,95839.9
2018-07-13T05:31:43.160Z,95843
2018-07-13T05:32:45.595Z,95843.9
2018-07-13T05:33:48.043Z,95846.2
2018-07-13T05:34:50.228Z,95843.5
2018-07-13T05:35:52.674Z,95842.8
2018-07-13T05:36:55.118Z,95847.1
2018-07-13T05:37:57.049Z,95841.2
2018-07-13T05:38:59.505Z,95843.1
2018-07-13T05:40:01.957Z,95846.3
2018-07-13T05:41:04.400Z,95843.9
2018-07-13T05:42:06.536Z,95850.7
2018-07-13T05:43:08.726Z,95846.3
2018-07-13T05:44:10.608Z,95850.1
2018-07-13T05:45:12.518Z,95842.8
2018-07-13T05:46:14.977Z,95849.7
2018-07-13T05:47:17.417Z,95845.9
2018-07-13T05:48:19.593Z,95845.9
2018-07-13T05:49:22.034Z,95845.6
2018-07-13T05:50:23.948Z,95850.3
2018-07-13T05:51:26.407Z,95850.9
2018-07-13T05:52:28.882Z,95847.7
2018-07-13T05:53:31.027Z,95849.1
2018-07-13T05:54:33.466Z,95847
2018-07-13T05:55:35.396Z,95853.8
2018-07-13T05:56:37.580Z,95852.6
2018-07-13T05:57:40.043Z,95852.8
2018-07-13T05:58:41.959Z,95851.9
2018-07-13T05:59:44.468Z,95852.3
2018-07-13T06:00:46.908Z,95850.5
2018-07-13T06:01:48.818Z,95855.6
2018-07-13T06:02:51.001Z,95856.7
2018-07-13T06:03:53.039Z,95855.8
2018-07-13T06:04:55.247Z,95857.8
2018-07-13T06:05:57.418Z,95854.8
2018-07-13T06:06:59.614Z,95858
2018-07-13T06:08:02.055Z,95860.3
2018-07-13T06:09:03.965Z,95859.9
2018-07-13T06:10:05.859Z,95856.7
2018-07-13T06:11:08.303Z,95858.1
2018-07-13T06:12:10.754Z,95855.4
2018-07-13T06:13:13.217Z,95855.4
2018-07-13T06:14:14.826Z,95854.2
2018-07-13T06:15:16.729Z,95858.2
2018-07-13T06:16:19.171Z,95861.5
2018-07-13T06:17:21.339Z,95863.6
2018-07-13T06:18:23.490Z,95867.3
2018-07-13T06:19:25.682Z,95864.9
2018-07-13T06:20:27.579Z,95862.4
2018-07-13T06:21:29.736Z,95860.3
2018-07-13T06:22:32.205Z,95858.6
2018-07-13T06:23:34.644Z,95858.6
2018-07-13T06:24:36.844Z,95856.9
2018-07-13T06:25:38.746Z,95857.7
2018-07-13T06:26:41.215Z,95860
2018-07-13T06:27:43.667Z,95864.1
2018-07-13T06:28:45.568Z,95861.3
2018-07-13T06:29:47.467Z,95867.5
2018-07-13T06:30:49.638Z,95862.1
2018-07-13T06:31:51.831Z,95865.1
2018-07-13T06:32:54.319Z,95862.5
2018-07-13T06:33:56.491Z,95867.1
2018-07-13T06:34:58.958Z,95866.9
2018-07-13T06:36:00.849Z,95869.2
2018-07-13T06:37:03.302Z,95868
2018-07-13T06:38:05.210Z,95869.7
2018-07-13T06:39:07.399Z,95862.9
2018-07-13T06:40:09.853Z,95865.1
2018-07-13T06:41:12.287Z,95868.3
2018-07-13T06:42:14.477Z,95866.9
2018-07-13T06:43:16.666Z,95868.3
2018-07-13T06:44:19.111Z,95868.2
2018-07-13T06:45:21.566Z,95869.8
2018-07-13T06:46:23.501Z,95867
2018-07-13T06:47:25.948Z,95870.3
2018-07-13T06:48:28.139Z,95870.4
2018-07-13T06:49:30.588Z,95870.5
2018-07-13T06:50:33.341Z,95869.3
2018-07-13T06:51:35.161Z,95872.8
2018-07-13T06:52:37.606Z,95871.4
2018-07-13T06:53:39.771Z,95874.6
2018-07-13T06:54:41.689Z,95872
2018-07-13T06:55:43.850Z,95873.7
2018-07-13T06:56:46.134Z,95874
2018-07-13T06:57:48.416Z,95872.9
2018-07-13T06:58:50.867Z,95872.9
2018-07-13T06:59:52.818Z,95875.5
2018-07-13T07:00:54.999Z,95874.4
2018-07-13T07:01:57.160Z,95873.4
2018-07-13T07:02:59.297Z,95876.9
2018-07-13T07:04:00.937Z,95874.9
2018-07-13T07:05:03.387Z,95878.8
2018-07-13T07:06:05.554Z,95876.2
2018-07-13T07:07:07.993Z,95872.8
2018-07-13T07:08:10.156Z,95875.4
2018-07-13T07:09:12.077Z,95875.3
2018-07-13T07:10:14.235Z,95875.4
2018-07-13T07:11:16.130Z,95876.9
2018-07-13T07:12:18.031Z,95874.1
2018-07-13T07:13:20.477Z,95874.2
2018-07-13T07:14:22.939Z,95875.7
2018-07-13T07:15:24.869Z,95877.1
2018-07-13T07:16:26.778Z,95877.5
2018-07-13T07:17:28.676Z,95873.9
2018-07-13T07:18:30.863Z,95876.4
2018-07-13T07:19:32.508Z,95873
2018-07-13T07:20:34.386Z,95877.4
2018-07-13T07:21:36.570Z,95879.1
2018-07-13T07:22:38.749Z,95876.7
2018-07-13T07:23:40.915Z,95876.1
2018-07-13T07:24:43.369Z,95873.3
2018-07-13T07:25:45.823Z,95876.8
2018-07-13T07:26:48.003Z,95877.4
2018-07-13T07:27:49.634Z,95872.8
2018-07-13T07:28:51.808Z,95875.6
2018-07-13T07:29:54.266Z,95870.2
2018-07-13T07:30:55.866Z,95874.1
2018-07-13T07:31:58.029Z,95876.3
2018-07-13T07:33:00.483Z,95875.4
2018-07-13T07:34:02.673Z,95874.4
2018-07-13T07:35:05.130Z,95878.3
2018-07-13T07:36:07.587Z,95875.4
2018-07-13T07:37:09.759Z,95875.2
2018-07-13T07:38:11.916Z,95878.2
2018-07-13T07:39:14.360Z,95875.2
2018-07-13T07:40:16.536Z,95875.6
2018-07-13T07:41:18.449Z,95875.1
2018-07-13T07:42:20.318Z,95872.5
2018-07-13T07:43:22.773Z,95872.3
2018-07-13T07:44:24.918Z,95872
2018-07-13T07:45:27.098Z,95871
2018-07-13T07:46:29.528Z,95872.5
2018-07-13T07:47:31.967Z,95866.4
2018-07-13T07:48:34.152Z,95867.5
2018-07-13T07:49:36.061Z,95869.9
2018-07-13T07:50:38.261Z,95863.8
2018-07-13T07:51:40.437Z,95867.2
2018-07-13T07:52:42.043Z,95864.7
2018-07-13T07:53:44.509Z,95866.4
2018-07-13T07:54:46.967Z,95862.4
2018-07-13T07:55:48.881Z,95861.3
2018-07-13T07:56:51.036Z,95859.9
2018-07-13T07:57:53.239Z,95863.8
2018-07-13T07:58:55.412Z,95859.8
2018-07-13T07:59:57.870Z,95863.3
2018-07-13T08:01:00.078Z,95864.3
2018-07-13T08:02:02.533Z,95863.8
2018-07-13T08:03:04.720Z,95862.8
2018-07-13T08:04:06.905Z,95863.1
2018-07-13T08:05:08.525Z,95860.1
2018-07-13T08:06:11.599Z,95863
2018-07-13T08:07:17.168Z,95862.2
2018-07-13T08:08:20.038Z,95857.8
2018-07-13T08:09:22.501Z,95861.4
2018-07-13T08:10:24.955Z,95857.6
2018-07-13T08:11:27.401Z,95857.5
2018-07-13T08:12:29.583Z,95861.3
2018-07-13T08:13:32.383Z,95864.9
2018-07-13T08:14:35.136Z,95862.6
2018-07-13T08:15:37.305Z,95868.3
2018-07-13T08:16:38.653Z,95861.5
2018-07-13T08:17:41.103Z,95859.4
2018-07-13T08:18:43.543Z,95861.5
2018-07-13T08:19:45.999Z,95860.7
2018-07-13T08:20:47.907Z,95865
2018-07-13T08:21:50.360Z,95860.1
2018-07-13T08:22:52.543Z,95862.1
2018-07-13T08:23:54.735Z,95863.7
2018-07-13T08:24:57.167Z,95867.3
2018-07-13T08:25:59.341Z,95866.7
2018-07-13T08:27:01.536Z,95860.7
2018-07-13T08:28:03.437Z,95863
2018-07-13T08:29:05.050Z,95860.9
2018-07-13T08:30:07.500Z,95862.7
2018-07-13T08:31:09.715Z,95860
2018-07-13T08:32:12.555Z,95861.3
2018-07-13T08:33:14.732Z,95859.6
2018-07-13T08:34:16.937Z,95858.1
2018-07-13T08:35:19.117Z,95854.3
2018-07-13T08:36:21.612Z,95853.9
2018-07-13T08:37:24.048Z,95856.8
2018-07-13T08:38:26.496Z,95853.7
2018-07-13T08:39:28.951Z,95858.8
2018-07-13T08:40:31.132Z,95856.4
2018-07-13T08:41:33.597Z,95856.6
2018-07-13T08:42:36.048Z,95859.5
2018-07-13T08:43:38.511Z,95857.6
2018-07-13T08:44:40.416Z,95855.9
2018-07-13T08:45:42.443Z,95854.5
2018-07-13T08:46:44.920Z,95855.1
2018-07-13T08:47:47.100Z,95857.1
2018-07-13T08:48:49.554Z,95853.3
2018-07-13T08:49:51.728Z,95857.5
2018-07-13T08:50:53.889Z,95858
2018-07-13T08:51:56.356Z,95857.9
2018-07-13T08:52:58.532Z,95855.7
2018-07-13T08:54:00.691Z,95853.3
2018-07-13T08:55:02.581Z,95856.1
2018-07-13T08:56:04.210Z,95859.2
2018-07-13T08:57:06.426Z,95857.5
2018-07-13T08:58:08.871Z,95859.1
2018-07-13T08:59:11.067Z,95857.2
2018-07-13T09:00:12.958Z,95860
2018-07-13T09:01:15.400Z,95861.2
2018-07-13T09:02:17.590Z,95860.7
2018-07-13T09:03:20.034Z,95865.1
2018-07-13T09:04:22.016Z,95859
2018-07-13T09:05:24.175Z,95860.5
2018-07-13T09:06:26.785Z,95864.1
2018-07-13T09:07:29.421Z,95862.8
2018-07-13T09:08:31.305Z,95858.7
2018-07-13T09:09:33.449Z,95862.6
2018-07-13T09:10:35.610Z,95862
2018-07-13T09:11:37.808Z,95860.6
2018-07-13T09:12:39.981Z,95859.7
2018-07-13T09:13:41.857Z,95856.9
2018-07-13T09:14:44.303Z,95858.5
2018-07-13T09:15:46.757Z,95855.8
2018-07-13T09:16:49.229Z,95855.2
2018-07-13T09:17:51.419Z,95855.7
2018-07-13T09:18:53.613Z,95857.9
2018-07-13T09:19:55.797Z,95856.5
2018-07-13T09:20:57.989Z,95860.6
2018-07-13T09:22:00.460Z,95859.7
2018-07-13T09:23:02.908Z,95862.6
2018-07-13T09:24:04.915Z,95861.3
2018-07-13T09:25:07.100Z,95861.7
2018-07-13T09:26:09.255Z,95856.8
2018-07-13T09:27:11.453Z,95857.9
2018-07-13T09:28:13.920Z,95859.1
2018-07-13T09:29:16.115Z,95861.3
2018-07-13T09:30:18.295Z,95858.1
2018-07-13T09:31:20.894Z,95857.5
2018-07-13T09:32:23.223Z,95858.1
2018-07-13T09:33:25.157Z,95861.2
2018-07-13T09:34:27.329Z,95856.4
2018-07-13T09:35:29.800Z,95856.2
2018-07-13T09:36:32.297Z,95857.3
2018-07-13T09:37:34.736Z,95859.2
2018-07-13T09:38:37.199Z,95860.5
2018-07-13T09:39:39.680Z,95854
2018-07-13T09:40:41.856Z,95861.3
2018-07-13T09:41:44.306Z,95858.6
2018-07-13T09:42:46.186Z,95860
2018-07-13T09:43:48.339Z,95857.7
2018-07-13T09:44:50.229Z,95861
2018-07-13T09:45:52.677Z,95860.5
2018-07-13T09:46:56.043Z,95864.5
2018-07-13T09:47:58.849Z,95866.9
2018-07-13T09:49:01.314Z,95867.4
2018-07-13T09:50:03.194Z,95867.4
2018-07-13T09:51:05.066Z,95867.8
2018-07-13T09:52:07.527Z,95866.8
2018-07-13T09:53:09.988Z,95871
2018-07-13T09:54:12.665Z,95870.7
2018-07-13T09:55:15.526Z,95870.3
2018-07-13T09:56:17.968Z,95867.7
2018-07-13T09:57:19.878Z,95866.1
2018-07-13T09:58:22.320Z,95867.5
2018-07-13T09:59:24.506Z,95866.1
2018-07-13T10:00:27.005Z,95869.8
2018-07-13T10:01:29.503Z,95870.1
2018-07-13T10:02:31.986Z,95866.6
2018-07-13T10:03:34.433Z,95863.6
2018-07-13T10:04:36.901Z,95866.8
2018-07-13T10:05:38.812Z,95866.1
2018-07-13T10:06:41.013Z,95863.9
2018-07-13T10:07:43.461Z,95865.1
2018-07-13T10:08:45.931Z,95863.8
2018-07-13T10:09:48.094Z,95862.7
2018-07-13T10:10:50.552Z,95861
2018-07-13T10:11:52.740Z,95863.1
2018-07-13T10:12:54.923Z,95861.3
2018-07-13T10:13:57.090Z,95864.6
2018-07-13T10:14:58.990Z,95867.6
2018-07-13T10:16:01.159Z,95865.8
2018-07-13T10:17:03.330Z,95861.3
2018-07-13T10:18:05.517Z,95863.6
2018-07-13T10:19:07.967Z,95863.4
2018-07-13T10:20:10.416Z,95865
2018-07-13T10:21:12.859Z,95865.3
2018-07-13T10:22:15.294Z,95862.5
2018-07-13T10:23:17.470Z,95863
2018-07-13T10:24:19.932Z,95867.1
2018-07-13T10:25:21.826Z,95865.5
2018-07-13T10:26:24.004Z,95862
2018-07-13T10:27:26.443Z,95866.6
2018-07-13T10:28:28.897Z,95863.6
2018-07-13T10:29:31.356Z,95865.9
2018-07-13T10:30:33.231Z,95865.9
2018-07-13T10:31:35.412Z,95864.7
2018-07-13T10:32:37.593Z,95866.4
2018-07-13T10:33:39.782Z,95865.1
2018-07-13T10:34:42.242Z,95867.1
2018-07-13T10:35:44.416Z,95867.8
2018-07-13T10:36:46.593Z,95866.4
2018-07-13T10:37:48.742Z,95872.3
2018-07-13T10:38:51.191Z,95870.2
2018-07-13T10:39:52.801Z,95867.3
2018-07-13T10:40:55.262Z,95862.6
2018-07-13T10:41:57.440Z,95864.7
2018-07-13T10:42:59.920Z,95865.4
2018-07-13T10:44:02.112Z,95864.5
2018-07-13T10:45:04.558Z,95865.8
2018-07-13T10:46:06.742Z,95863.6
2018-07-13T10:47:08.647Z,95865.6
2018-07-13T10:48:11.096Z,95864
2018-07-13T10:49:13.548Z,95866.9
2018-07-13T10:50:15.749Z,95864.1
2018-07-13T10:51:17.904Z,95863.3
2018-07-13T10:52:20.080Z,95864.1
2018-07-13T10:53:22.528Z,95857.8
2018-07-13T10:54:24.973Z,95858.6
2018-07-13T10:55:27.417Z,95859.4
2018-07-13T10:56:29.866Z,95859.5
2018-07-13T10:57:32.051Z,95860
2018-07-13T10:58:34.268Z,95855.9
2018-07-13T10:59:36.767Z,95859.2
2018-07-13T11:00:39.217Z,95856.6
2018-07-13T11:01:41.659Z,95857.5
2018-07-13T11:02:43.937Z,95860.2
2018-07-13T11:03:46.149Z,95859.8
2018-07-13T11:04:48.602Z,95854.3
2018-07-13T11:05:51.074Z,95855.4
2018-07-13T11:06:53.524Z,95855.9
2018-07-13T11:07:56.081Z,95858.7
2018-07-13T11:08:58.319Z,95854.8
2018-07-13T11:10:00.818Z,95853.9
2018-07-13T11:11:03.326Z,95850.3
2018-07-13T11:12:05.569Z,95852.5
2018-07-13T11:13:07.853Z,95853.3
2018-07-13T11:14:10.316Z,95850.9
2018-07-13T11:15:12.809Z,95851.1
2018-07-13T11:16:15.296Z,95846.9
2018-07-13T11:17:17.476Z,95849.5
2018-07-13T11:18:19.650Z,95846.3
2018-07-13T11:19:22.101Z,95847.2
2018-07-13T11:20:23.732Z,95846.4
2018-07-13T11:21:26.171Z,95842.3
2018-07-13T11:22:28.390Z,95844.7
2018-07-13T11:23:30.846Z,95838.8
2018-07-13T11:24:33.026Z,95837.7
2018-07-13T11:25:35.215Z,95842.4
2018-07-13T11:26:37.671Z,95835.5
2018-07-13T11:27:39.889Z,95835.4
2018-07-13T11:28:42.365Z,95832.6
2018-07-13T11:29:44.730Z,95836.7
2018-07-13T11:30:46.996Z,95829
2018-07-13T11:31:48.897Z,95834.7
2018-07-13T11:32:51.073Z,95831.8
2018-07-13T11:33:53.521Z,95830.3
2018-07-13T11:34:55.977Z,95829.3
2018-07-13T11:35:58.169Z,95825.2
2018-07-13T11:37:01.409Z,95822.5
2018-07-13T11:38:04.267Z,95819.3
2018-07-13T11:39:06.449Z,95820.8
2018-07-13T11:40:08.905Z,95821.7
2018-07-13T11:41:11.091Z,95821.6
2018-07-13T11:42:13.539Z,95822.6
2018-07-13T11:43:15.451Z,95825.1
2018-07-13T11:44:18.462Z,95824.5
2018-07-13T11:45:20.443Z,95825
2018-07-13T11:46:22.628Z,95827.1
2018-07-13T11:47:25.076Z,95824.1
2018-07-13T11:48:26.703Z,95825.7
2018-07-13T11:49:28.603Z,95819.8
2018-07-13T11:50:31.040Z,95827.3
2018-07-13T11:51:33.504Z,95828
2018-07-13T11:52:35.653Z,95824.7
2018-07-13T11:53:37.839Z,95822.7
2018-07-13T11:54:40.300Z,95822.9
2018-07-13T11:55:42.760Z,95822.6
2018-07-13T11:56:44.940Z,95821.3
2018-07-13T11:57:47.120Z,95822.8
2018-07-13T11:58:49.138Z,95823.7
2018-07-13T11:59:51.390Z,95819.8
2018-07-13T12:00:53.715Z,95819.3
2018-07-13T12:01:56.100Z,95817.8
2018-07-13T12:02:58.679Z,95813.6
2018-07-13T12:04:01.183Z,95817.9
2018-07-13T12:05:03.165Z,95816.1
2018-07-13T12:06:05.349Z,95811.5
2018-07-13T12:07:07.523Z,95811.2
2018-07-13T12:08:09.448Z,95812.8
2018-07-13T12:09:11.922Z,95811.9
2018-07-13T12:10:14.429Z,95808.9
2018-07-13T12:11:16.877Z,95809.1
2018-07-13T12:12:19.074Z,95807.5
2018-07-13T12:13:21.521Z,95806.7
2018-07-13T12:14:24.169Z,95808.8
2018-07-13T12:15:26.755Z,95805
2018-07-13T12:16:29.012Z,95807
2018-07-13T12:17:32.236Z,95808
2018-07-13T12:18:34.809Z,95803.1
2018-07-13T12:19:36.984Z,95809.9
2018-07-13T12:20:39.177Z,95805.5
2018-07-13T12:21:41.625Z,95802.5
2018-07-13T12:22:43.810Z,95804
2018-07-13T12:23:45.988Z,95800.8
2018-07-13T12:24:48.439Z,95801.9
2018-07-13T12:25:50.904Z,95800.3
2018-07-13T12:26:53.480Z,95799.1
2018-07-13T12:27:56.046Z,95795.2
2018-07-13T12:28:58.493Z,95800.1
2018-07-13T12:30:00.667Z,95798.1
2018-07-13T12:31:02.846Z,95794.4
2018-07-13T12:32:05.303Z,95799.2
2018-07-13T12:33:07.827Z,95795.2
2018-07-13T12:34:10.292Z,95801.2
2018-07-13T12:35:12.738Z,95796.3
2018-07-13T12:36:14.659Z,95799.2
2018-07-13T12:37:16.549Z,95792.8
2018-07-13T12:38:18.746Z,95795.9